METAR Data
IDs: Format: Raw Decoded Include TAF

Data at: 1848 UTC 25 Sep 2020

KRCX 251835Z AUTO 17013G18KT 140V200 10SM BKN047 BKN055 25/17 A2976 RMK AO2 T02450174
KRCX 251815Z AUTO 17013KT 10SM BKN047 24/17 A2977 RMK AO2 T02400174
KRCX 251755Z AUTO 17008KT 10SM 23/17 A2978 RMK AO2 T02310172 10231 20142
KRCX 251735Z AUTO 15006KT 10SM 22/17 A2979 RMK AO2 T02220174
KRCX 251715Z AUTO 13009KT 10SM 21/18 A2980 RMK AO2 T02100178
KRCX 251655Z AUTO 16005KT 10SM 19/19 A2981 RMK AO2 T01850185
KRCX 251635Z AUTO 16007KT 10SM OVC007 17/17 A2982 RMK AO2 T01740174
KRCX 251615Z AUTO 15007KT 10SM OVC005 17/17 A2983 RMK AO2 T01670167
KRCX 251555Z AUTO 14005KT 10SM OVC005 17/17 A2984 RMK AO2 T01650165
KRCX 251535Z AUTO 16006KT 7SM OVC003 16/16 A2985 RMK AO2 T01620162
KRCX 251515Z AUTO 16006KT 10SM OVC003 16/16 A2986 RMK AO2 T01600160
KRCX 251455Z AUTO 16005KT 7SM OVC003 16/16 A2986 RMK AO2 T01570157
KRCX 251435Z AUTO 15005KT 5SM BR 16/16 A2987 RMK AO2 T01550155
KRCX 251415Z AUTO 17004KT 4SM BR 15/15 A2988 RMK AO2 LTG DSNT NW T01530153
KRCX 251355Z AUTO 16006KT 4SM BR 15/15 A2987 RMK AO2 T01510151
KRCX 251335Z AUTO 16003KT 2 1/2SM BR OVC002 15/15 A2987 RMK AO2 T01500150
KRCX 251315Z AUTO 14005KT 1 1/2SM BR OVC002 15/15 A2987 RMK AO2 T01470147
KRCX 251255Z AUTO 14006KT 3/4SM BR OVC002 15/15 A2986 RMK AO2 T01470147
KRCX 251235Z AUTO 13005KT 1/2SM FG 15/15 A2986 RMK AO2 T01450145
KRCX 251215Z AUTO 13004KT 1/2SM FG 14/14 A2987 RMK AO2 T01430143
KRCX 251155Z AUTO 13005KT 3/4SM BR 14/14 A2986 RMK AO2 T01420142 10142 20117
KRCX 251135Z AUTO 13006KT 3/4SM BR 14/14 A2986 RMK AO2 LTG DSNT NW T01410141
KRCX 251115Z AUTO 13005KT 1/4SM FG 14/14 A2987 RMK AO2 T01400140
KRCX 251055Z AUTO 12005KT 1/4SM FG 14/14 A2987 RMK AO2 T01400140
KRCX 251035Z AUTO 12004KT 1/2SM FG 14/14 A2988 RMK AO2 T01380138
KRCX 251015Z AUTO 15003KT 1/2SM FG 14/14 A2988 RMK AO2 T01380138
KRCX 250955Z AUTO 13004KT 1/4SM FG 14/14 A2987 RMK AO2 T01380138
KRCX 250935Z AUTO 12003KT 1/2SM FG 14/14 A2987 RMK AO2 T01400140
KRCX 250915Z AUTO 12004KT 1/2SM FG OVC001 14/14 A2987 RMK AO2 T01380138
KRCX 250855Z AUTO 00000KT 1/4SM FG OVC001 14/14 A2987 RMK AO2 T01380138
KRCX 250835Z AUTO 00000KT 1/2SM FG OVC001 14/14 A2988 RMK AO2 T01370137
KRCX 250815Z AUTO 11003KT 1SM BR OVC001 14/14 A2988 RMK AO2 T01370137
KRCX 250755Z AUTO 13003KT 1/2SM FG OVC001 14/14 A2988 RMK AO2 T01360136
KRCX 250735Z AUTO 00000KT 1/4SM FG OVC001 14/14 A2988 RMK AO2 T01360136
KRCX 250715Z AUTO 00000KT 1/2SM FG OVC001 14/14 A2988 RMK AO2 T01360136
KRCX 250655Z AUTO 10004KT 3/4SM BR OVC001 13/13 A2988 RMK AO2 T01330133
KRCX 250635Z AUTO 00000KT 1/2SM FG 13/13 A2989 RMK AO2 T01320132
KRCX 250615Z AUTO 00000KT 1SM BR 13/13 A2989 RMK AO2 LTG DSNT NW T01260126
KRCX 250555Z AUTO 00000KT 1/2SM FG 12/12 A2989 RMK AO2 LTG DSNT NW T01160116 10173 20110 402050110
KRCX 250535Z AUTO 00000KT 1/4SM FG 11/11 A2989 RMK AO2 T01130113
KRCX 250515Z AUTO 00000KT 1/4SM FG 12/12 A2989 RMK AO2 T01150115
KRCX 250455Z AUTO 00000KT 1/2SM FG 11/11 A2989 RMK AO2 T01140114
KRCX 250435Z AUTO 00000KT 3/4SM BR 12/12 A2989 RMK AO2 T01230123
KRCX 250415Z AUTO 00000KT 7SM CLR 13/13 A2990 RMK AO2 T01310131
KRCX 250355Z AUTO 05003KT 3SM BR CLR 13/13 A2990 RMK AO2 T01330133
KRCX 250335Z AUTO 00000KT 2 1/2SM BR 13/13 A2990 RMK AO2 T01330133
KRCX 250315Z AUTO 00000KT 1 1/2SM BR 13/13 A2990 RMK AO2 VIS 1/2V5 T01330133
KRCX 250255Z AUTO 00000KT 7SM 14/14 A2990 RMK AO2 T01360136
KRCX 250235Z AUTO 00000KT 7SM 14/14 A2990 RMK AO2 T01400140
KRCX 250215Z AUTO 00000KT 10SM BKN014 15/15 A2990 RMK AO2 T01500150
KRCX 250155Z AUTO 10003KT 10SM BKN014 15/15 A2990 RMK AO2 T01500150
KRCX 250135Z AUTO 00000KT 5SM BR SCT016 14/14 A2990 RMK AO2 T01430143
KRCX 250115Z AUTO 00000KT 10SM CLR 16/16 A2989 RMK AO2 T01550155
KRCX 250055Z AUTO 00000KT 10SM CLR 16/16 A2989 RMK AO2 T01620162
KRCX 250035Z AUTO 08003KT 10SM CLR 16/16 A2989 RMK AO2 T01630161
KRCX 250015Z AUTO 08003KT 10SM SCT014 17/16 A2989 RMK AO2 T01700158
KRCX 242355Z AUTO 08004KT 10SM SCT014 SCT040 17/16 A2989 RMK AO2 T01730156 10198 20173
KRCX 242335Z AUTO 06003KT 10SM 18/16 A2990 RMK AO2 T01810155
KRCX 242315Z AUTO 06004KT 10SM 19/16 A2989 RMK AO2 T01900155
KRCX 242255Z AUTO 08003KT 10SM 20/16 A2989 RMK AO2 T01950156
KRCX 242235Z AUTO 08003KT 10SM 20/16 A2988 RMK AO2 T01950155
KRCX 242215Z AUTO 07006KT 10SM 19/16 A2988 RMK AO2 T01910155
KRCX 242155Z AUTO 07005KT 10SM 19/16 A2988 RMK AO2 T01930157
KRCX 242135Z AUTO 11008KT 10SM 19/15 A2988 RMK AO2 T01900154
KRCX 242115Z AUTO 07009KT 10SM 20/16 A2988 RMK AO2 T01970155
KRCX 242055Z AUTO 09010KT 10SM 19/16 A2989 RMK AO2 T01880158
KRCX 242035Z AUTO 07008KT 10SM 19/16 A2989 RMK AO2 T01900160
KRCX 242015Z AUTO 07007KT 10SM 19/16 A2989 RMK AO2 T01900161
KRCX 241955Z AUTO 08008KT 10SM 19/16 A2989 RMK AO2 T01870162
KRCX 241935Z AUTO 06007KT 10SM 18/17 A2989 RMK AO2 T01830166
KRCX 241915Z AUTO 08008KT 10SM BKN028 OVC037 18/16 A2989 RMK AO2 T01820156
KRCX 241855Z AUTO 08007KT 10SM OVC037 19/15 A2989 RMK AO2 T01910149
KRCX 241835Z AUTO 07005KT 10SM BKN037 OVC045 20/15 A2990 RMK AO2 T01950150
KRCX 241815Z AUTO 07007KT 10SM SCT019 SCT026 OVC037 19/15 A2990 RMK AO2 T01910149
KRCX 241755Z AUTO 08006KT 10SM SCT017 OVC037 19/15 A2990 RMK AO2 T01920147 10205 20155
KRCX 241735Z AUTO 08006KT 10SM BKN017 BKN031 BKN047 20/16 A2991 RMK AO2 LTG DSNT S T02040160
KRCX 241715Z AUTO 08007KT 10SM 20/16 A2991 RMK AO2 T01970163
KRCX 241655Z AUTO 04005KT 10SM 19/18 A2991 RMK AO2 T01910179
KRCX 241635Z AUTO 02005KT 10SM 18/18 A2991 RMK AO2 T01820177
KRCX 241615Z AUTO 02005KT 10SM 18/18 A2992 RMK AO2 LTG DSNT S T01820179
KRCX 241555Z AUTO 05004KT 10SM 18/18 A2992 RMK AO2 LTG DSNT S T01800178
KRCX 241535Z AUTO 02004KT 10SM 18/18 A2992 RMK AO2 T01750175
KRCX 241515Z AUTO 04003KT 10SM -RA SCT011 SCT014 BKN060 17/17 A2992 RMK AO2 T01720172
KRCX 241455Z AUTO 00000KT 10SM -RA BKN011 BKN014 OVC095 17/17 A2992 RMK AO2 LTG DSNT S T01670167
KRCX 241435Z AUTO 02003KT 10SM -RA OVC011 17/17 A2991 RMK AO2 T01690169
KRCX 241415Z AUTO 07003KT 10SM 17/17 A2989 RMK AO2 T01670167
KRCX 241355Z AUTO 00000KT 10SM 16/16 A2989 RMK AO2 T01630163
KRCX 241335Z AUTO 33005KT 10SM 16/16 A2990 RMK AO2 T01630163
KRCX 241315Z AUTO 25006KT 10SM 16/16 A2991 RMK AO2 T01600160
KRCX 241255Z AUTO 00000KT 10SM SCT080 BKN090 BKN110 16/16 A2990 RMK AO2 T01600160
KRCX 241235Z AUTO 13008KT 10SM BKN090 OVC110 16/16 A2988 RMK AO2 T01560156
KRCX 241215Z AUTO 13008KT 10SM 16/16 A2989 RMK AO2 T01570157
KRCX 241155Z AUTO 00000KT 10SM 16/16 A2992 RMK AO2 P0003 60010 70010 T01600160 10182 20158
KRCX 241135Z AUTO 00000KT 7SM -RA 16/16 A2993 RMK AO2 P0002 T01590159
KRCX 241115Z AUTO 00000KT 5SM -RA 16/16 A2991 RMK AO2 LTG DSNT SW P0001 T01600160
KRCX 241055Z AUTO 00000KT 4SM -RA SCT025 SCT038 BKN070 16/16 A2991 RMK AO2 P0005 T01600160
KRCX 241035Z AUTO 00000KT 7SM BKN070 OVC095 17/17 A2992 RMK AO2 LTG DSNT W P0004 T01650165
KRCX 241015Z AUTO 00000KT 5SM -RA BKN060 BKN075 17/17 A2993 RMK AO2 P0004 T01650165
KRCX 240955Z AUTO 00000KT 10SM -RA SCT049 BKN060 17/17 A2994 RMK AO2 P0002 T01660166
KRCX 240935Z AUTO 01003KT 7SM -RA OVC049 17/17 A2993 RMK AO2 P0001 T01690169
KRCX 240915Z AUTO 02005KT 10SM -RA 17/17 A2993 RMK AO2 LTG DSNT E T01700170
KRCX 240855Z AUTO 03006KT 10SM -RA 17/17 A2991 RMK AO2 T01700170
KRCX 240835Z AUTO 00000KT 10SM 17/17 A2993 RMK AO2 LTG DSNT E T01720172
KRCX 240815Z AUTO 00000KT 10SM VCTS 17/17 A2992 RMK AO2 LTG DSNT NW THRU E T01720172
KRCX 240755Z AUTO 00000KT 10SM OVC050 17/17 A2993 RMK AO2 LTG DSNT NE AND E T01730172
KRCX 240735Z AUTO 00000KT 10SM TS OVC050 18/17 A2992 RMK AO2 LTG DSNT NW THRU E T01760171
KRCX 240715Z AUTO 00000KT 10SM BKN050 BKN065 18/17 A2992 RMK AO2 LTG DSNT W THRU N T01760172
KRCX 240655Z AUTO 00000KT 10SM VCTS BKN050 BKN065 18/17 A2991 RMK AO2 LTG DSNT E AND NW T01770172